Time;durP1;ratioP1;P1;durP2;ratioP2;P2;SDS_P1;SDS_P2;PMS_P1;PMS_P2;Temp;Humidity;BMP_temperature;BMP_pressure;BME280_temperature;BME280_humidity;BME280_pressure;Samples;Min_cycle;Max_cycle;Signal;HPM_P1;HPM_P2
2022/07/17 00:00:49;;;;;;;8.30;1.80;;;;;;;12.28;72.14;102000.13;4912566;29;20059;-84
2022/07/17 00:03:18;;;;;;;5.20;1.63;;;;;;;12.27;72.22;102000.09;4908859;29;20067;-85
2022/07/17 00:05:45;;;;;;;2.67;1.08;;;;;;;12.24;72.69;101999.25;4912395;28;20043;-84
2022/07/17 00:08:13;;;;;;;6.03;1.27;;;;;;;12.23;72.33;102000.09;4907956;29;20708;-84
2022/07/17 00:10:43;;;;;;;5.85;1.92;;;;;;;12.19;72.76;102003.59;4909319;29;20047;-83
2022/07/17 00:13:11;;;;;;;7.43;1.73;;;;;;;12.16;72.72;101997.44;4911304;28;20050;-83
2022/07/17 00:15:37;;;;;;;5.03;1.73;;;;;;;12.15;73.23;102000.91;4930528;28;20059;-84
2022/07/17 00:18:06;;;;;;;5.05;1.50;;;;;;;12.11;73.15;101997.41;4908340;29;20063;-86
2022/07/17 00:20:33;;;;;;;2.20;1.40;;;;;;;12.11;73.10;101996.53;4930450;29;20047;-83
2022/07/17 00:23:00;;;;;;;3.60;1.20;;;;;;;12.09;73.29;101991.25;4913011;29;20054;-84
2022/07/17 00:25:32;;;;;;;5.03;1.38;;;;;;;12.07;73.65;101987.75;4906041;29;20039;-87
2022/07/17 00:27:58;;;;;;;5.13;1.20;;;;;;;12.04;73.85;101982.47;4903856;29;20062;-83
2022/07/17 00:30:25;;;;;;;4.93;1.98;;;;;;;12.00;74.52;101993.84;4930735;28;20070;-82
2022/07/17 00:32:52;;;;;;;5.40;1.80;;;;;;;11.96;74.10;101981.56;4928205;29;20969;-85
2022/07/17 00:35:19;;;;;;;6.20;1.98;;;;;;;11.93;74.61;101985.00;4929405;29;20103;-84
2022/07/17 00:37:48;;;;;;;5.15;1.67;;;;;;;11.87;74.56;101987.59;4920807;29;20055;-83
2022/07/17 00:40:21;;;;;;;2.35;1.50;;;;;;;11.85;75.60;101986.69;4907534;29;20175;-83
2022/07/17 00:42:48;;;;;;;1.97;1.20;;;;;;;11.83;75.40;101993.69;4937905;28;20062;-85
2022/07/17 00:45:16;;;;;;;2.95;1.40;;;;;;;11.79;75.76;101995.41;4899175;29;20312;-84
2022/07/17 00:47:57;;;;;;;4.05;1.77;;;;;;;11.79;75.64;102002.41;4905702;29;20102;-83
2022/07/17 00:50:28;;;;;;;4.63;1.70;;;;;;;11.71;76.07;101992.72;4909921;29;20048;-86
2022/07/17 00:52:55;;;;;;;4.40;2.28;;;;;;;11.68;76.78;101997.94;4921594;28;20047;-86
2022/07/17 00:55:24;;;;;;;6.78;1.65;;;;;;;11.72;77.03;101986.59;4915671;28;20058;-85
2022/07/17 00:57:54;;;;;;;5.85;1.92;;;;;;;11.70;76.67;101988.31;4942003;28;20358;-83
2022/07/17 01:00:22;;;;;;;9.63;2.50;;;;;;;11.68;77.25;101984.84;4934056;28;20055;-83
2022/07/17 01:02:54;;;;;;;16.88;10.43;;;;;;;11.69;77.45;101989.22;4952009;28;20055;-84
2022/07/17 01:05:23;;;;;;;5.43;1.83;;;;;;;11.70;77.30;101990.09;4934096;28;20494;-84
2022/07/17 01:07:51;;;;;;;5.15;1.65;;;;;;;11.66;77.42;101990.94;4904807;28;20055;-83
2022/07/17 01:10:20;;;;;;;2.30;1.35;;;;;;;11.61;77.42;101990.88;4920452;28;20426;-84
2022/07/17 01:12:48;;;;;;;3.10;1.60;;;;;;;11.55;78.30;101991.72;4916217;28;20047;-83
2022/07/17 01:15:16;;;;;;;4.00;2.08;;;;;;;11.50;78.14;101997.78;4929900;28;20145;-82
2022/07/17 01:17:44;;;;;;;9.90;1.52;;;;;;;11.47;79.02;101997.75;4928159;28;20099;-81
2022/07/17 01:20:12;;;;;;;4.75;1.70;;;;;;;11.40;78.99;101989.81;4915221;28;20074;-85
2022/07/17 01:22:49;;;;;;;4.95;1.85;;;;;;;11.36;79.50;101990.66;4933017;28;20047;-82
2022/07/17 01:25:20;;;;;;;6.20;2.47;;;;;;;11.29;79.73;101993.22;4913966;28;20417;-83
2022/07/17 01:27:48;;;;;;;5.15;1.65;;;;;;;11.24;79.96;101990.56;4912453;28;20051;-82
2022/07/17 01:30:15;;;;;;;4.75;1.40;;;;;;;11.22;80.60;101995.81;4935575;28;20054;-84
2022/07/17 01:32:43;;;;;;;4.63;1.75;;;;;;;11.22;80.36;101992.28;4923454;28;20178;-84
2022/07/17 01:35:13;;;;;;;6.00;1.85;;;;;;;11.22;80.61;101997.53;4934030;28;20142;-83
2022/07/17 01:37:41;;;;;;;4.97;1.50;;;;;;;11.16;80.58;101987.88;4944097;28;20405;-84
2022/07/17 01:40:12;;;;;;;8.70;1.63;;;;;;;11.12;80.47;101998.28;4918962;28;20127;-84
2022/07/17 01:42:42;;;;;;;7.18;2.50;;;;;;;11.07;81.33;101996.50;4919260;28;20050;-86
2022/07/17 01:45:10;;;;;;;8.05;2.15;;;;;;;11.06;81.83;101991.25;4920997;28;20043;-85
2022/07/17 01:47:36;;;;;;;2.47;1.65;;;;;;;11.08;81.86;101994.75;4925742;28;20046;-82
2022/07/17 01:50:05;;;;;;;4.35;2.03;;;;;;;11.06;81.87;101991.25;4913753;28;20047;-82
2022/07/17 01:52:34;;;;;;;4.80;2.20;;;;;;;11.04;81.20;101996.47;4931970;28;20043;-83
2022/07/17 01:55:00;;;;;;;6.72;2.10;;;;;;;11.03;81.34;101994.72;4946383;28;20059;-84
2022/07/17 01:57:27;;;;;;;5.07;2.05;;;;;;;11.00;81.82;101992.06;4937828;28;20752;-84
2022/07/17 01:59:53;;;;;;;2.80;1.80;;;;;;;10.98;81.78;102000.78;4921441;28;20058;-83
2022/07/17 02:02:22;;;;;;;6.72;1.77;;;;;;;10.95;82.49;101993.78;4917372;28;20046;-84
2022/07/17 02:04:48;;;;;;;2.97;1.95;;;;;;;10.92;82.50;101991.09;4933428;28;20055;-83
2022/07/17 02:07:15;;;;;;;7.95;1.75;;;;;;;10.89;82.53;101996.31;4925229;28;20047;-85
2022/07/17 02:09:42;;;;;;;2.88;1.73;;;;;;;10.87;82.40;102000.63;4912279;28;20058;-83
2022/07/17 02:12:08;;;;;;;5.20;1.75;;;;;;;10.83;82.61;101999.72;4915002;28;20074;-83
2022/07/17 02:14:36;;;;;;;6.10;2.67;;;;;;;10.82;83.21;101997.09;4936343;28;20051;-84
2022/07/17 02:17:03;;;;;;;2.53;1.65;;;;;;;10.78;83.67;102004.06;4927413;28;20138;-84
2022/07/17 02:19:30;;;;;;;8.25;2.15;;;;;;;10.73;83.26;101998.75;4944265;28;20050;-85
2022/07/17 02:21:57;;;;;;;2.58;1.90;;;;;;;10.73;83.70;101995.25;4926247;28;20051;-83
2022/07/17 02:24:23;;;;;;;3.72;2.10;;;;;;;10.72;83.81;101993.50;4929338;28;20053;-84
2022/07/17 02:26:50;;;;;;;4.95;2.05;;;;;;;10.67;83.75;101996.03;4924748;28;20613;-85
2022/07/17 02:29:17;;;;;;;4.93;1.67;;;;;;;10.63;84.26;101988.16;4934708;28;20047;-85
2022/07/17 02:31:50;;;;;;;4.70;2.50;;;;;;;10.60;84.44;101983.75;4934838;28;20047;-83
2022/07/17 02:34:16;;;;;;;2.13;1.60;;;;;;;10.55;84.55;101985.44;4933836;28;20414;-86
2022/07/17 02:36:43;;;;;;;7.80;2.03;;;;;;;10.51;85.14;101991.50;4925301;28;20055;-83
2022/07/17 02:39:10;;;;;;;3.92;1.92;;;;;;;10.47;85.03;101990.56;4933574;28;20467;-83
2022/07/17 02:41:37;;;;;;;3.88;2.25;;;;;;;10.47;85.66;101987.94;4916163;28;20479;-85
2022/07/17 02:44:04;;;;;;;3.10;1.45;;;;;;;10.47;85.33;101994.91;4930684;28;20074;-83
2022/07/17 02:46:31;;;;;;;6.15;2.17;;;;;;;10.47;85.85;101997.53;4926677;28;20087;-83
2022/07/17 02:48:57;;;;;;;4.80;2.63;;;;;;;10.46;86.26;102001.03;4934873;28;20061;-84
2022/07/17 02:51:24;;;;;;;3.00;1.65;;;;;;;10.46;86.58;102009.75;4931149;28;21115;-83
2022/07/17 02:53:51;;;;;;;5.78;1.83;;;;;;;10.47;86.91;102008.91;4917191;28;20051;-83
2022/07/17 02:56:17;;;;;;;6.13;1.80;;;;;;;10.47;87.16;102008.00;4908520;28;20079;-85
2022/07/17 02:58:44;;;;;;;4.90;2.13;;;;;;;10.48;86.82;102013.28;4930648;28;20051;-84
2022/07/17 03:01:11;;;;;;;4.05;1.92;;;;;;;10.44;87.26;102008.84;4918527;28;20050;-84
2022/07/17 03:03:37;;;;;;;6.47;2.33;;;;;;;10.42;86.93;102015.81;4912752;28;20051;-86
2022/07/17 03:06:04;;;;;;;6.50;2.00;;;;;;;10.39;87.27;102018.38;4942345;28;20138;-86
2022/07/17 03:08:31;;;;;;;3.55;1.40;;;;;;;10.38;87.76;102014.00;4922738;28;20048;-86
2022/07/17 03:10:57;;;;;;;4.15;1.45;;;;;;;10.34;87.38;102014.78;4916377;28;20635;-82
2022/07/17 03:13:24;;;;;;;4.80;2.00;;;;;;;10.32;87.99;102013.88;4930744;28;20059;-82
2022/07/17 03:15:51;;;;;;;4.00;1.88;;;;;;;10.29;88.08;102013.84;4910076;28;20055;-84
2022/07/17 03:18:18;;;;;;;5.93;2.10;;;;;;;10.27;88.61;102022.56;4935926;28;20609;-82
2022/07/17 03:20:45;;;;;;;6.05;1.58;;;;;;;10.25;88.16;102019.03;4924576;28;20047;-84
2022/07/17 03:23:11;;;;;;;6.30;2.05;;;;;;;10.24;88.21;102019.88;4929748;28;20138;-85
2022/07/17 03:25:40;;;;;;;2.70;2.00;;;;;;;10.23;88.66;102031.22;4929981;28;20611;-87
2022/07/17 03:28:07;;;;;;;3.78;1.88;;;;;;;10.22;88.40;102028.56;4910244;28;20044;-84
2022/07/17 03:30:34;;;;;;;5.90;1.95;;;;;;;10.24;88.83;102032.09;4916938;28;20045;-83
2022/07/17 03:33:00;;;;;;;4.88;2.78;;;;;;;10.22;88.47;102037.31;4910483;28;20059;-83
2022/07/17 03:35:27;;;;;;;3.15;2.13;;;;;;;10.22;88.56;102032.06;4929699;28;20129;-84
2022/07/17 03:37:53;;;;;;;3.17;1.95;;;;;;;10.24;88.48;102035.56;4927380;28;20051;-83
2022/07/17 03:40:22;;;;;;;4.72;1.90;;;;;;;10.23;88.53;102033.84;4915717;28;20721;-85
2022/07/17 03:42:49;;;;;;;2.88;1.63;;;;;;;10.24;88.57;102042.56;4912673;28;20058;-84
2022/07/17 03:45:15;;;;;;;3.63;2.00;;;;;;;10.25;88.07;102049.56;4934594;28;20049;-82
2022/07/17 03:47:42;;;;;;;6.03;2.20;;;;;;;10.26;88.35;102048.72;4912459;28;20478;-85
2022/07/17 03:50:09;;;;;;;3.28;1.65;;;;;;;10.27;88.18;102047.84;4934475;28;20055;-85
2022/07/17 03:52:36;;;;;;;5.32;2.10;;;;;;;10.30;87.94;102053.13;4920012;28;20046;-85
2022/07/17 03:55:03;;;;;;;5.03;1.80;;;;;;;10.33;88.06;102054.91;4915354;29;20074;-83
2022/07/17 03:57:30;;;;;;;8.80;1.85;;;;;;;10.37;87.70;102060.22;4925748;29;20575;-83
2022/07/17 03:59:57;;;;;;;6.80;1.83;;;;;;;10.41;87.26;102056.78;4933429;29;20050;-84
2022/07/17 04:02:24;;;;;;;4.55;1.70;;;;;;;10.48;87.24;102057.78;4915176;29;20486;-82
2022/07/17 04:04:50;;;;;;;4.45;1.95;;;;;;;10.54;86.61;102043.88;4940202;28;20115;-83
2022/07/17 04:07:30;;;;;;;2.92;1.85;;;;;;;10.63;86.29;102049.25;4910935;29;20051;-83
2022/07/17 04:10:00;;;;;;;6.55;2.17;;;;;;;10.76;85.67;102055.53;4925632;28;20050;-83
2022/07/17 04:12:28;;;;;;;3.03;2.25;;;;;;;10.89;84.99;102046.94;4911883;29;20044;-85
2022/07/17 04:14:56;;;;;;;8.38;1.58;;;;;;;11.02;84.17;102052.34;4935422;28;20133;-84
2022/07/17 04:17:23;;;;;;;3.95;1.45;;;;;;;11.14;83.39;102049.00;4927109;29;20367;-83
2022/07/17 04:19:50;;;;;;;7.90;1.98;;;;;;;11.30;82.96;102052.66;4929771;28;20118;-84
2022/07/17 04:22:19;;;;;;;3.67;1.17;;;;;;;11.45;81.83;102046.69;4913593;29;20051;-85
2022/07/17 04:24:46;;;;;;;5.60;1.48;;;;;;;11.56;81.29;102035.44;4915018;29;20055;-83
2022/07/17 04:27:13;;;;;;;5.10;1.20;;;;;;;11.67;80.10;102027.66;4924901;29;20075;-86
2022/07/17 04:29:41;;;;;;;1.38;1.10;;;;;;;11.82;79.52;102023.41;4917418;29;20108;-84
2022/07/17 04:32:12;;;;;;;3.53;1.58;;;;;;;11.93;79.30;102011.25;4928768;29;20063;-84
2022/07/17 04:34:39;;;;;;;3.45;1.50;;;;;;;12.05;78.77;102013.13;4932704;28;20098;-85
2022/07/17 04:37:06;;;;;;;5.07;1.65;;;;;;;12.14;78.01;102015.81;4928352;29;20244;-82
2022/07/17 04:39:32;;;;;;;3.17;1.38;;;;;;;12.22;77.51;102023.72;4916304;29;20055;-85
2022/07/17 04:41:59;;;;;;;1.45;1.00;;;;;;;12.31;77.10;102029.03;4918279;29;20068;-82
2022/07/17 04:44:26;;;;;;;7.03;1.58;;;;;;;12.36;76.66;102040.44;4915836;29;20414;-83
2022/07/17 04:46:55;;;;;;;7.15;1.10;;;;;;;12.41;76.61;102051.84;4931942;29;20137;-84
2022/07/17 04:49:22;;;;;;;3.88;1.20;;;;;;;12.45;76.69;102058.00;4932065;29;20177;-84
2022/07/17 04:51:48;;;;;;;5.30;1.55;;;;;;;12.50;76.48;102066.78;4916397;29;20078;-81
2022/07/17 04:54:15;;;;;;;1.45;0.95;;;;;;;12.53;76.25;102077.31;4931244;29;20047;-85
2022/07/17 04:56:47;;;;;;;4.45;1.30;;;;;;;12.52;75.97;102087.81;4932260;28;20051;-86
2022/07/17 04:59:14;;;;;;;5.00;1.35;;;;;;;12.46;76.26;102095.63;4918851;29;20078;-84
2022/07/17 05:01:40;;;;;;;3.35;1.40;;;;;;;12.32;76.70;102092.91;4930535;29;20385;-82
2022/07/17 05:04:07;;;;;;;1.23;1.08;;;;;;;12.17;77.34;102078.81;4909398;29;20039;-82
2022/07/17 05:06:43;;;;;;;2.28;1.00;;;;;;;12.05;77.83;102074.34;4913645;29;20051;-82
2022/07/17 05:09:09;;;;;;;3.90;1.17;;;;;;;11.97;77.87;102072.53;4910627;29;20142;-84
2022/07/17 05:11:36;;;;;;;2.20;0.80;;;;;;;11.95;78.70;102064.66;4930957;28;20394;-83
2022/07/17 05:14:03;;;;;;;6.93;1.67;;;;;;;11.95;78.80;102069.91;4929629;29;20182;-85
2022/07/17 05:16:30;;;;;;;2.50;1.15;;;;;;;11.97;78.63;102069.91;4914972;29;20062;-84
2022/07/17 05:18:56;;;;;;;7.05;2.42;;;;;;;12.03;78.45;102064.72;4930803;29;20443;-83
2022/07/17 05:21:23;;;;;;;4.60;1.50;;;;;;;12.10;78.73;102056.03;4912319;29;20094;-84
2022/07/17 05:23:50;;;;;;;5.85;1.77;;;;;;;12.19;77.82;102055.19;4925771;29;20278;-84
2022/07/17 05:26:19;;;;;;;4.95;1.15;;;;;;;12.26;77.72;102056.13;4928422;29;20059;-83
2022/07/17 05:28:45;;;;;;;5.50;1.65;;;;;;;12.30;77.26;102053.53;4914030;29;20089;-83
2022/07/17 05:31:12;;;;;;;2.45;1.23;;;;;;;12.35;76.96;102045.69;4928930;29;20131;-83
2022/07/17 05:33:39;;;;;;;1.42;1.02;;;;;;;12.42;76.83;102050.09;4921365;29;20059;-84
2022/07/17 05:36:06;;;;;;;7.38;1.27;;;;;;;12.54;76.33;102065.94;4914887;29;20058;-83
2022/07/17 05:38:33;;;;;;;7.55;1.65;;;;;;;12.68;75.69;102065.13;4944327;28;20057;-82
2022/07/17 05:41:00;;;;;;;3.50;1.08;;;;;;;12.81;75.14;102066.06;4913186;29;20048;-83
2022/07/17 05:43:27;;;;;;;5.32;1.10;;;;;;;12.97;74.82;102061.72;4914760;29;20051;-82
2022/07/17 05:45:55;;;;;;;3.78;0.93;;;;;;;13.11;73.76;102065.28;4930219;29;20054;-81
2022/07/17 05:48:22;;;;;;;1.90;0.98;;;;;;;13.26;73.40;102067.09;4910924;29;21093;-84
2022/07/17 05:50:49;;;;;;;8.45;1.88;;;;;;;13.40;73.07;102068.03;4910554;29;20052;-85
2022/07/17 05:53:16;;;;;;;2.85;1.20;;;;;;;13.55;72.38;102056.66;4909136;28;20083;-85
2022/07/17 05:55:43;;;;;;;5.95;1.42;;;;;;;13.76;71.61;102067.22;4926967;28;20043;-82
2022/07/17 05:58:10;;;;;;;4.50;0.93;;;;;;;13.85;71.13;102068.06;4910191;28;20051;-83
2022/07/17 06:00:37;;;;;;;3.70;1.05;;;;;;;13.97;70.80;102061.94;4934943;28;20047;-83
2022/07/17 06:03:05;;;;;;;2.42;0.90;;;;;;;14.09;69.93;102068.94;4925896;28;20410;-86
2022/07/17 06:05:31;;;;;;;3.65;1.00;;;;;;;14.17;69.63;102067.19;4935469;28;20047;-84
2022/07/17 06:08:00;;;;;;;1.92;0.43;;;;;;;14.24;69.10;102070.69;4933963;28;20057;-85
2022/07/17 06:10:28;;;;;;;3.08;0.93;;;;;;;14.30;69.08;102075.06;4929115;28;20145;-84
2022/07/17 06:12:56;;;;;;;6.18;1.45;;;;;;;14.39;68.61;102069.78;4920232;28;20055;-85
2022/07/17 06:15:24;;;;;;;2.20;0.93;;;;;;;14.45;68.27;102076.81;4938113;28;20035;-84
2022/07/17 06:17:51;;;;;;;2.47;0.90;;;;;;;14.50;67.98;102081.16;4919980;28;20066;-83
2022/07/17 06:20:19;;;;;;;2.83;1.00;;;;;;;14.54;67.61;102080.28;4934984;28;20058;-84
2022/07/17 06:22:46;;;;;;;3.75;0.95;;;;;;;14.67;67.51;102075.03;4930685;28;20067;-84
2022/07/17 06:25:14;;;;;;;1.95;0.88;;;;;;;14.80;66.68;102081.13;4934037;28;20050;-86
2022/07/17 06:27:42;;;;;;;4.72;1.08;;;;;;;14.90;66.10;102072.31;4914118;28;20058;-85
2022/07/17 06:30:11;;;;;;;3.53;1.00;;;;;;;14.99;65.83;102077.53;4933867;28;20055;-84
2022/07/17 06:32:39;;;;;;;6.60;1.75;;;;;;;15.10;65.49;102081.88;4929727;28;20133;-86
2022/07/17 06:35:07;;;;;;;5.10;1.40;;;;;;;15.12;65.38;102081.00;4930797;28;20058;-85
2022/07/17 06:37:34;;;;;;;4.38;1.23;;;;;;;15.18;65.34;102073.03;4916186;28;20051;-82
2022/07/17 06:40:00;;;;;;;1.50;0.55;;;;;;;15.29;64.23;102080.00;4919462;28;20047;-83
2022/07/17 06:42:27;;;;;;;1.73;0.68;;;;;;;15.40;63.90;102083.47;4933049;28;20055;-83
2022/07/17 06:44:54;;;;;;;2.88;1.13;;;;;;;15.54;63.27;102078.97;4933152;28;20693;-83
2022/07/17 06:47:21;;;;;;;6.22;2.33;;;;;;;15.71;62.93;102081.50;4933604;28;21007;-84
2022/07/17 06:49:47;;;;;;;8.40;2.92;;;;;;;15.85;62.30;102073.50;4914547;28;20687;-84
2022/07/17 06:52:14;;;;;;;7.70;1.17;;;;;;;15.98;61.34;102071.63;4917962;28;20398;-84
2022/07/17 06:54:41;;;;;;;5.63;0.98;;;;;;;16.04;60.88;102076.84;4930479;28;20061;-85
2022/07/17 06:57:08;;;;;;;3.35;0.95;;;;;;;16.07;61.02;102083.88;4947908;28;20055;-82
2022/07/17 06:59:35;;;;;;;4.93;1.05;;;;;;;16.21;60.67;102076.69;4936517;28;20051;-85
2022/07/17 07:02:02;;;;;;;2.70;0.75;;;;;;;16.40;60.08;102076.53;4942713;28;20094;-84
2022/07/17 07:04:28;;;;;;;4.88;1.10;;;;;;;16.48;59.47;102079.94;4929484;28;20075;-84
2022/07/17 07:06:55;;;;;;;2.65;0.57;;;;;;;16.49;59.85;102084.34;4944505;28;20138;-84
2022/07/17 07:09:22;;;;;;;2.97;0.70;;;;;;;16.64;59.42;102090.34;4915126;28;20497;-83
2022/07/17 07:11:48;;;;;;;4.68;1.15;;;;;;;16.71;58.77;102086.72;4929507;28;20155;-84
2022/07/17 07:14:15;;;;;;;3.03;0.90;;;;;;;16.72;58.60;102085.84;4919631;28;20062;-83
2022/07/17 07:16:42;;;;;;;4.07;0.73;;;;;;;16.77;58.73;102084.03;4929277;28;20862;-85
2022/07/17 07:19:09;;;;;;;3.17;0.50;;;;;;;16.85;58.47;102076.84;4932174;28;20156;-84
2022/07/17 07:21:35;;;;;;;3.97;0.90;;;;;;;16.96;58.03;102081.19;4915495;28;20757;-83
2022/07/17 07:24:02;;;;;;;1.85;0.70;;;;;;;17.02;57.22;102079.31;4929750;28;20546;-84
2022/07/17 07:26:29;;;;;;;5.40;0.80;;;;;;;17.16;56.73;102088.88;4913940;28;20059;-83
2022/07/17 07:28:56;;;;;;;1.75;0.57;;;;;;;17.26;56.01;102084.31;4947104;28;20051;-85
2022/07/17 07:31:22;;;;;;;2.75;1.05;;;;;;;17.44;55.75;102092.00;4922201;28;20419;-84
2022/07/17 07:33:52;;;;;;;3.33;0.88;;;;;;;17.83;55.18;102076.41;4931366;28;20054;-84
2022/07/17 07:36:19;;;;;;;6.28;1.05;;;;;;;18.45;52.87;102085.91;4932778;28;20055;-86
2022/07/17 07:38:46;;;;;;;2.65;0.90;;;;;;;19.04;51.42;102078.59;4906939;28;20061;-84
2022/07/17 07:41:12;;;;;;;1.10;0.50;;;;;;;19.59;50.24;102071.13;4915375;28;20046;-84
2022/07/17 07:43:39;;;;;;;2.55;0.50;;;;;;;20.26;48.30;102071.25;4933321;28;20055;-86
2022/07/17 07:46:06;;;;;;;7.53;0.95;;;;;;;20.96;47.03;102082.59;4930087;28;20062;-84
2022/07/17 07:48:32;;;;;;;1.65;0.52;;;;;;;21.38;45.74;102084.88;4929344;28;20070;-84
2022/07/17 07:50:59;;;;;;;3.28;0.70;;;;;;;21.59;44.82;102086.00;4913654;28;20086;-83
2022/07/17 07:53:27;;;;;;;3.15;0.70;;;;;;;21.87;44.14;102079.75;4907939;28;20117;-83
2022/07/17 07:55:54;;;;;;;2.95;0.60;;;;;;;21.79;43.95;102077.34;4913396;28;20107;-85
2022/07/17 07:58:21;;;;;;;6.45;0.98;;;;;;;21.24;44.78;102082.63;4936487;28;20544;-84
2022/07/17 08:00:48;;;;;;;5.63;1.13;;;;;;;20.82;45.07;102080.38;4938277;28;20267;-85
2022/07/17 08:03:15;;;;;;;1.45;0.80;;;;;;;20.55;45.66;102090.84;4934209;28;20565;-84
2022/07/17 08:05:42;;;;;;;2.90;1.08;;;;;;;20.29;46.15;102087.09;4932402;28;20062;-83
2022/07/17 08:08:09;;;;;;;3.05;0.93;;;;;;;20.43;45.92;102085.88;4925842;28;20406;-83
2022/07/17 08:10:37;;;;;;;4.30;1.08;;;;;;;21.15;44.74;102088.25;4926816;28;20571;-84
2022/07/17 08:13:06;;;;;;;2.08;0.70;;;;;;;21.93;43.19;102087.56;4938733;28;20036;-84
2022/07/17 08:15:38;;;;;;;3.33;1.23;;;;;;;22.74;41.47;102085.59;4925486;28;20077;-83
2022/07/17 08:18:06;;;;;;;3.00;1.20;;;;;;;23.59;40.08;102079.66;4943520;28;20119;-85
2022/07/17 08:20:33;;;;;;;2.72;1.02;;;;;;;24.29;38.67;102084.78;4919518;28;21150;-84
2022/07/17 08:23:01;;;;;;;1.63;1.05;;;;;;;25.00;37.14;102088.75;4918565;28;20046;-83
2022/07/17 08:25:28;;;;;;;4.80;1.60;;;;;;;25.52;36.45;102086.25;4943853;28;20047;-84
2022/07/17 08:27:55;;;;;;;3.15;0.65;;;;;;;25.92;34.75;102092.28;4934525;28;20043;-84
2022/07/17 08:30:22;;;;;;;3.47;0.80;;;;;;;25.55;35.26;102099.53;4939516;28;20047;-84
2022/07/17 08:32:48;;;;;;;3.63;0.60;;;;;;;24.71;36.47;102107.03;4932871;28;20043;-84
2022/07/17 08:35:16;;;;;;;2.78;0.85;;;;;;;23.98;37.90;102104.81;4919554;28;20051;-86
2022/07/17 08:37:53;;;;;;;6.80;0.95;;;;;;;23.64;38.38;102103.53;4927176;28;20139;-85
2022/07/17 08:40:28;;;;;;;8.25;1.20;;;;;;;23.05;39.21;102110.25;4924641;28;20050;-84
2022/07/17 08:42:57;;;;;;;3.17;0.60;;;;;;;22.79;40.01;102110.34;4922114;28;20046;-85
2022/07/17 08:45:24;;;;;;;1.80;0.93;;;;;;;22.69;40.41;102119.59;4919617;28;20488;-84
2022/07/17 08:47:54;;;;;;;3.42;1.00;;;;;;;22.87;40.09;102119.88;4917868;29;20137;-85
2022/07/17 08:50:25;;;;;;;3.10;0.43;;;;;;;23.43;39.15;102115.97;4935712;29;20054;-85
2022/07/17 08:52:52;;;;;;;3.70;0.93;;;;;;;24.18;38.13;102113.78;4929784;28;20047;-84
2022/07/17 08:55:19;;;;;;;4.13;0.63;;;;;;;24.62;37.03;102113.63;4917585;28;20051;-84
2022/07/17 08:57:46;;;;;;;4.10;0.68;;;;;;;24.70;36.57;102105.28;4930282;29;20510;-85
2022/07/17 09:00:20;;;;;;;3.17;0.63;;;;;;;25.13;35.98;102116.69;4918207;28;20439;-83
2022/07/17 09:03:01;;;;;;;2.55;0.98;;;;;;;26.06;34.24;102113.09;4923359;28;20051;-84
2022/07/17 09:05:37;;;;;;;4.00;0.75;;;;;;;26.99;33.39;102112.72;4918273;29;20043;-85
2022/07/17 09:08:06;;;;;;;2.25;0.77;;;;;;;27.51;32.24;102109.78;4931258;28;20436;-86
2022/07/17 09:10:40;;;;;;;5.18;0.70;;;;;;;27.99;31.61;102106.09;4906465;29;20055;-87
2022/07/17 09:13:26;;;;;;;2.15;0.60;;;;;;;28.19;30.47;102108.50;4932106;28;20075;-84
2022/07/17 09:15:59;;;;;;;2.58;0.70;;;;;;;27.93;31.45;102103.81;4915348;29;20138;-86
2022/07/17 09:18:44;;;;;;;;;;;;;;;28.25;30.33;102107.25;4933302;29;20040;-86
2022/07/17 09:21:33;;;;;;;3.20;0.90;;;;;;;28.51;30.08;102100.28;4918597;29;19928;-85
2022/07/17 09:24:07;;;;;;;4.55;0.90;;;;;;;28.61;30.07;102100.53;4933695;29;20043;-85
2022/07/17 09:26:37;;;;;;;1.13;0.93;;;;;;;28.53;30.01;102094.78;4931821;29;20465;-85
2022/07/17 09:29:08;;;;;;;3.97;1.10;;;;;;;29.19;29.91;102098.69;4919406;29;20477;-85
2022/07/17 09:31:35;;;;;;;4.43;1.48;;;;;;;29.75;28.90;102102.25;4917992;28;20134;-84
2022/07/17 09:34:20;;;;;;;2.08;0.60;;;;;;;29.74;28.93;102111.31;4934173;29;20067;-84
2022/07/17 09:37:12;;;;;;;6.40;1.13;;;;;;;29.70;28.59;102095.34;4917758;29;20138;-85
2022/07/17 09:39:40;;;;;;;1.83;1.20;;;;;;;30.46;28.17;102097.41;4913900;28;20410;-83
2022/07/17 09:42:08;;;;;;;2.40;0.90;;;;;;;31.51;27.52;102089.81;4920883;28;20305;-84
2022/07/17 09:44:34;;;;;;;2.83;0.82;;;;;;;32.18;26.14;102091.09;4910069;28;20043;-84
2022/07/17 09:47:05;;;;;;;5.32;1.02;;;;;;;33.02;24.89;102081.72;4920942;29;20128;-88
2022/07/17 09:49:35;;;;;;;4.22;0.93;;;;;;;33.43;23.34;102091.88;4920734;29;20070;-86
2022/07/17 09:52:03;;;;;;;3.42;1.10;;;;;;;33.50;24.19;102092.19;4932902;29;20039;-86
2022/07/17 09:54:30;;;;;;;2.95;1.02;;;;;;;32.73;24.54;102090.41;4934010;29;20065;-86
2022/07/17 09:57:00;;;;;;;1.67;0.88;;;;;;;31.06;25.36;102084.19;4915171;29;20051;-85
2022/07/17 09:59:37;;;;;;;1.08;0.60;;;;;;;29.87;27.48;102098.78;4933038;29;20082;-84
2022/07/17 10:02:06;;;;;;;4.43;1.23;;;;;;;30.54;26.88;102089.66;4932925;29;20052;-85
2022/07/17 10:04:35;;;;;;;2.00;0.50;;;;;;;31.76;25.59;102082.56;4930566;29;20062;-85
2022/07/17 10:07:02;;;;;;;1.98;0.75;;;;;;;32.91;24.82;102078.03;4927655;29;20051;-85
2022/07/17 10:09:31;;;;;;;4.72;1.00;;;;;;;33.15;23.90;102086.00;4914074;29;20051;-84
2022/07/17 10:11:58;;;;;;;2.83;1.00;;;;;;;32.97;23.46;102088.38;4934588;28;20058;-84
2022/07/17 10:14:26;;;;;;;1.80;0.63;;;;;;;32.60;24.43;102093.19;4915459;28;20053;-85
2022/07/17 10:17:15;;;;;;;2.83;0.70;;;;;;;32.54;24.34;102088.25;4950234;28;20059;-84
2022/07/17 10:19:55;;;;;;;1.10;0.75;;;;;;;32.31;24.01;102097.25;4915447;28;20065;-84
2022/07/17 10:22:25;;;;;;;2.83;0.70;;;;;;;32.11;24.50;102090.66;4933083;29;20043;-88
2022/07/17 10:24:57;;;;;;;1.40;0.60;;;;;;;32.74;24.10;102090.25;4934767;29;20451;-85
2022/07/17 10:27:27;;;;;;;2.40;0.68;;;;;;;33.13;23.51;102093.41;4915685;29;20051;-86
2022/07/17 10:30:13;;;;;;;2.03;0.95;;;;;;;32.49;24.04;102091.38;4915150;29;20059;-86
2022/07/17 10:32:58;;;;;;;3.75;0.90;;;;;;;33.08;23.49;102092.91;4917069;28;20087;-87
2022/07/17 10:35:35;;;;;;;1.77;1.23;;;;;;;34.00;23.27;102091.59;4902508;29;20522;-87
2022/07/17 10:38:17;;;;;;;3.53;1.20;;;;;;;34.55;21.67;102087.78;4932385;28;20047;-86
2022/07/17 10:40:44;;;;;;;2.78;1.13;;;;;;;35.34;21.33;102078.84;4921827;28;20055;-86
2022/07/17 10:43:11;;;;;;;2.33;0.93;;;;;;;35.91;21.25;102078.13;4932373;29;20441;-85
2022/07/17 10:45:46;;;;;;;2.95;0.98;;;;;;;35.23;21.23;102084.41;4930258;29;20051;-87
2022/07/17 10:48:22;;;;;;;3.13;0.77;;;;;;;35.04;21.47;102085.25;4908616;29;20059;-86
2022/07/17 10:50:53;;;;;;;1.73;0.95;;;;;;;34.57;21.52;102081.19;4942134;28;20517;-86
2022/07/17 10:53:31;;;;;;;1.92;0.73;;;;;;;34.58;21.34;102074.75;4913733;28;20055;-83
2022/07/17 10:56:05;;;;;;;2.50;0.60;;;;;;;34.97;20.35;102079.50;4929698;28;20062;-87
2022/07/17 10:58:44;;;;;;;2.33;1.05;;;;;;;35.23;20.47;102073.53;4925087;28;20055;-83
2022/07/17 11:01:17;;;;;;;0.95;0.57;;;;;;;35.67;20.30;102076.72;4920894;28;20458;-85
2022/07/17 11:03:53;;;;;;;1.27;0.82;;;;;;;35.63;20.69;102066.22;4930505;28;20043;-87
2022/07/17 11:06:30;;;;;;;2.03;0.95;;;;;;;35.93;20.20;102063.34;4935789;29;20047;-84
2022/07/17 11:09:01;;;;;;;3.72;1.35;;;;;;;36.56;19.32;102064.59;4931851;29;20051;-83
2022/07/17 11:11:37;;;;;;;2.03;0.60;;;;;;;37.28;18.67;102069.31;4912066;29;20054;-86
2022/07/17 11:14:16;;;;;;;3.47;0.80;;;;;;;37.90;18.42;102071.22;4933047;28;20046;-87
2022/07/17 11:17:04;;;;;;;3.90;0.70;;;;;;;37.63;18.02;102066.75;4924943;29;20514;-84
2022/07/17 11:19:39;;;;;;;2.70;0.70;;;;;;;37.49;17.98;102058.09;4934009;29;20047;-88
2022/07/17 11:22:13;;;;;;;0.68;0.60;;;;;;;37.15;18.41;102061.50;4933625;28;20410;-89
2022/07/17 11:24:46;;;;;;;3.88;0.60;;;;;;;37.63;17.41;102061.28;4911502;29;20508;-84
2022/07/17 11:27:27;;;;;;;1.88;0.70;;;;;;;37.76;17.44;102056.25;4936788;28;20055;-84
2022/07/17 11:30:00;;;;;;;2.40;0.57;;;;;;;37.82;18.50;102054.78;4917336;28;20054;-83
2022/07/17 11:32:38;;;;;;;1.52;0.77;;;;;;;37.28;17.82;102052.09;4919135;29;20049;-86